sensor_id;sensor_type;location;lat;lon;timestamp;P1;durP1;ratioP1;P2;durP2;ratioP2
52618;SDS011;38513;53.234;6.568;2024-02-28T08:02:07;77.05;;;43.20;;
52618;SDS011;38513;53.234;6.568;2024-02-28T08:04:44;75.53;;;41.47;;
52618;SDS011;38513;53.234;6.568;2024-02-28T08:07:13;71.57;;;40.42;;
52618;SDS011;38513;53.234;6.568;2024-02-28T08:10:05;65.65;;;39.42;;
52618;SDS011;38513;53.234;6.568;2024-02-28T08:12:40;64.15;;;39.22;;
52618;SDS011;38513;53.234;6.568;2024-02-28T08:15:07;71.60;;;40.58;;
52618;SDS011;38513;53.234;6.568;2024-02-28T08:17:36;61.15;;;38.97;;
52618;SDS011;38513;53.234;6.568;2024-02-28T08:20:03;64.47;;;38.30;;
52618;SDS011;38513;53.234;6.568;2024-02-28T08:22:40;62.33;;;38.53;;
52618;SDS011;38513;53.234;6.568;2024-02-28T08:25:16;67.07;;;39.25;;
52618;SDS011;38513;53.234;6.568;2024-02-28T08:27:53;66.28;;;38.58;;
52618;SDS011;38513;53.234;6.568;2024-02-28T08:30:30;58.97;;;36.78;;
52618;SDS011;38513;53.234;6.568;2024-02-28T08:50:04;58.15;;;35.45;;
52618;SDS011;38513;53.234;6.568;2024-02-28T08:55:53;52.63;;;34.55;;
52618;SDS011;38513;53.234;6.568;2024-02-28T08:58:37;53.35;;;34.53;;
52618;SDS011;38513;53.234;6.568;2024-02-28T09:05:00;53.25;;;35.47;;
52618;SDS011;38513;53.234;6.568;2024-02-28T09:14:28;53.08;;;34.42;;
52618;SDS011;38513;53.234;6.568;2024-02-28T09:28:02;52.03;;;33.72;;
52618;SDS011;38513;53.234;6.568;2024-02-28T09:33:40;53.60;;;34.27;;
52618;SDS011;38513;53.234;6.568;2024-02-28T09:36:25;53.42;;;34.08;;
52618;SDS011;38513;53.234;6.568;2024-02-28T10:55:49;49.03;;;33.50;;
52618;SDS011;38513;53.234;6.568;2024-02-28T10:58:18;49.33;;;34.15;;
52618;SDS011;38513;53.234;6.568;2024-02-28T11:19:00;49.08;;;34.00;;
52618;SDS011;38513;53.234;6.568;2024-02-28T11:43:30;40.72;;;29.23;;
52618;SDS011;38513;53.234;6.568;2024-02-28T11:46:08;37.72;;;28.65;;
52618;SDS011;38513;53.234;6.568;2024-02-28T11:48:40;39.15;;;28.80;;
52618;SDS011;38513;53.234;6.568;2024-02-28T11:51:51;36.53;;;27.83;;
52618;SDS011;38513;53.234;6.568;2024-02-28T11:54:43;36.92;;;27.63;;
52618;SDS011;38513;53.234;6.568;2024-02-28T11:57:25;36.00;;;27.38;;
52618;SDS011;38513;53.234;6.568;2024-02-28T12:00:20;36.93;;;27.20;;
52618;SDS011;38513;53.234;6.568;2024-02-28T12:02:52;37.55;;;27.92;;
52618;SDS011;38513;53.234;6.568;2024-02-28T12:05:24;36.45;;;27.90;;
52618;SDS011;38513;53.234;6.568;2024-02-28T12:07:56;36.45;;;27.38;;
52618;SDS011;38513;53.234;6.568;2024-02-28T12:10:37;39.60;;;29.03;;
52618;SDS011;38513;53.234;6.568;2024-02-28T12:13:06;40.05;;;29.08;;
52618;SDS011;38513;53.234;6.568;2024-02-28T12:15:40;38.40;;;28.80;;
52618;SDS011;38513;53.234;6.568;2024-02-28T12:18:16;41.75;;;29.52;;
52618;SDS011;38513;53.234;6.568;2024-02-28T12:21:15;42.92;;;30.45;;
52618;SDS011;38513;53.234;6.568;2024-02-28T12:23:45;44.38;;;31.73;;
52618;SDS011;38513;53.234;6.568;2024-02-28T13:04:21;46.90;;;33.28;;
52618;SDS011;38513;53.234;6.568;2024-02-28T13:07:04;45.03;;;32.33;;
52618;SDS011;38513;53.234;6.568;2024-02-28T13:09:47;42.00;;;32.25;;
52618;SDS011;38513;53.234;6.568;2024-02-28T13:12:46;43.60;;;32.00;;
52618;SDS011;38513;53.234;6.568;2024-02-28T13:15:27;41.88;;;32.13;;
52618;SDS011;38513;53.234;6.568;2024-02-28T13:17:57;45.80;;;32.65;;
52618;SDS011;38513;53.234;6.568;2024-02-28T13:20:26;42.70;;;31.95;;
52618;SDS011;38513;53.234;6.568;2024-02-28T13:23:04;42.80;;;32.20;;
52618;SDS011;38513;53.234;6.568;2024-02-28T13:25:43;45.00;;;33.65;;
52618;SDS011;38513;53.234;6.568;2024-02-28T13:31:27;41.65;;;32.38;;
52618;SDS011;38513;53.234;6.568;2024-02-28T13:33:57;42.17;;;33.13;;
52618;SDS011;38513;53.234;6.568;2024-02-28T13:36:39;42.08;;;32.28;;
52618;SDS011;38513;53.234;6.568;2024-02-28T13:39:26;42.08;;;31.48;;
52618;SDS011;38513;53.234;6.568;2024-02-28T13:42:01;40.53;;;32.17;;
52618;SDS011;38513;53.234;6.568;2024-02-28T13:44:36;40.67;;;31.52;;
52618;SDS011;38513;53.234;6.568;2024-02-28T13:47:03;40.60;;;30.65;;
52618;SDS011;38513;53.234;6.568;2024-02-28T13:49:56;38.30;;;31.13;;
52618;SDS011;38513;53.234;6.568;2024-02-28T13:52:43;36.40;;;29.43;;
52618;SDS011;38513;53.234;6.568;2024-02-28T13:55:12;35.58;;;28.80;;
52618;SDS011;38513;53.234;6.568;2024-02-28T13:57:38;36.38;;;28.55;;
52618;SDS011;38513;53.234;6.568;2024-02-28T14:03:33;34.58;;;28.38;;
52618;SDS011;38513;53.234;6.568;2024-02-28T14:06:09;33.97;;;28.58;;
52618;SDS011;38513;53.234;6.568;2024-02-28T14:08:38;34.92;;;28.02;;
52618;SDS011;38513;53.234;6.568;2024-02-28T14:11:08;35.13;;;28.43;;
52618;SDS011;38513;53.234;6.568;2024-02-28T14:13:34;34.20;;;27.90;;
52618;SDS011;38513;53.234;6.568;2024-02-28T14:16:05;33.30;;;27.77;;
52618;SDS011;38513;53.234;6.568;2024-02-28T14:18:51;34.35;;;28.05;;
52618;SDS011;38513;53.234;6.568;2024-02-28T14:21:19;34.90;;;28.58;;
52618;SDS011;38513;53.234;6.568;2024-02-28T14:26:38;35.15;;;28.30;;
52618;SDS011;38513;53.234;6.568;2024-02-28T14:29:07;35.20;;;28.02;;
52618;SDS011;38513;53.234;6.568;2024-02-28T14:31:41;35.30;;;29.30;;
52618;SDS011;38513;53.234;6.568;2024-02-28T14:34:07;37.22;;;30.67;;
52618;SDS011;38513;53.234;6.568;2024-02-28T14:36:34;37.17;;;31.08;;
52618;SDS011;38513;53.234;6.568;2024-02-28T14:39:09;37.53;;;31.58;;
52618;SDS011;38513;53.234;6.568;2024-02-28T14:41:45;38.77;;;32.10;;
52618;SDS011;38513;53.234;6.568;2024-02-28T14:44:11;36.63;;;31.03;;
52618;SDS011;38513;53.234;6.568;2024-02-28T14:46:39;35.58;;;30.67;;
52618;SDS011;38513;53.234;6.568;2024-02-28T14:49:06;35.97;;;31.65;;
52618;SDS011;38513;53.234;6.568;2024-02-28T14:51:32;39.10;;;31.70;;
52618;SDS011;38513;53.234;6.568;2024-02-28T14:53:59;37.10;;;32.13;;
52618;SDS011;38513;53.234;6.568;2024-02-28T14:56:25;37.70;;;31.88;;
52618;SDS011;38513;53.234;6.568;2024-02-28T14:59:00;38.35;;;32.40;;
52618;SDS011;38513;53.234;6.568;2024-02-28T15:01:31;36.78;;;31.30;;
52618;SDS011;38513;53.234;6.568;2024-02-28T15:04:09;38.55;;;32.03;;
52618;SDS011;38513;53.234;6.568;2024-02-28T15:06:42;36.13;;;31.30;;
52618;SDS011;38513;53.234;6.568;2024-02-28T15:09:11;38.10;;;32.63;;
52618;SDS011;38513;53.234;6.568;2024-02-28T15:11:40;36.00;;;31.38;;
52618;SDS011;38513;53.234;6.568;2024-02-28T15:14:12;36.60;;;31.92;;
52618;SDS011;38513;53.234;6.568;2024-02-28T15:16:38;37.47;;;31.60;;
52618;SDS011;38513;53.234;6.568;2024-02-28T15:19:04;37.33;;;31.48;;
52618;SDS011;38513;53.234;6.568;2024-02-28T15:21:31;36.70;;;31.85;;
52618;SDS011;38513;53.234;6.568;2024-02-28T15:23:57;36.53;;;31.73;;
52618;SDS011;38513;53.234;6.568;2024-02-28T15:26:23;34.97;;;31.17;;
52618;SDS011;38513;53.234;6.568;2024-02-28T15:28:52;37.00;;;32.15;;
52618;SDS011;38513;53.234;6.568;2024-02-28T15:31:18;35.10;;;31.17;;
52618;SDS011;38513;53.234;6.568;2024-02-28T15:33:51;35.50;;;30.38;;
52618;SDS011;38513;53.234;6.568;2024-02-28T15:36:19;37.20;;;31.23;;
52618;SDS011;38513;53.234;6.568;2024-02-28T15:38:48;35.22;;;29.90;;
52618;SDS011;38513;53.234;6.568;2024-02-28T15:41:20;37.03;;;31.40;;
52618;SDS011;38513;53.234;6.568;2024-02-28T15:43:48;36.22;;;30.40;;
52618;SDS011;38513;53.234;6.568;2024-02-28T15:46:17;37.47;;;30.88;;
52618;SDS011;38513;53.234;6.568;2024-02-28T15:48:49;36.88;;;31.15;;
52618;SDS011;38513;53.234;6.568;2024-02-28T15:51:18;35.90;;;30.48;;
52618;SDS011;38513;53.234;6.568;2024-02-28T15:53:44;38.37;;;31.47;;
52618;SDS011;38513;53.234;6.568;2024-02-28T15:56:10;40.70;;;31.02;;
52618;SDS011;38513;53.234;6.568;2024-02-28T15:58:41;36.47;;;30.88;;
52618;SDS011;38513;53.234;6.568;2024-02-28T16:01:12;37.58;;;30.45;;
52618;SDS011;38513;53.234;6.568;2024-02-28T16:03:44;36.35;;;30.60;;
52618;SDS011;38513;53.234;6.568;2024-02-28T16:06:13;36.95;;;30.15;;
52618;SDS011;38513;53.234;6.568;2024-02-28T16:08:41;36.97;;;30.20;;
52618;SDS011;38513;53.234;6.568;2024-02-28T16:11:08;38.90;;;30.48;;
52618;SDS011;38513;53.234;6.568;2024-02-28T16:13:34;36.63;;;29.48;;
52618;SDS011;38513;53.234;6.568;2024-02-28T16:16:03;38.25;;;31.15;;
52618;SDS011;38513;53.234;6.568;2024-02-28T16:18:35;36.30;;;29.92;;
52618;SDS011;38513;53.234;6.568;2024-02-28T16:21:04;37.13;;;30.05;;
52618;SDS011;38513;53.234;6.568;2024-02-28T16:23:30;37.20;;;29.88;;
52618;SDS011;38513;53.234;6.568;2024-02-28T16:26:02;38.60;;;30.58;;
52618;SDS011;38513;53.234;6.568;2024-02-28T16:28:32;39.42;;;30.65;;
52618;SDS011;38513;53.234;6.568;2024-02-28T16:31:00;39.58;;;29.00;;
52618;SDS011;38513;53.234;6.568;2024-02-28T16:33:26;37.95;;;30.35;;
52618;SDS011;38513;53.234;6.568;2024-02-28T16:35:53;37.90;;;30.60;;
52618;SDS011;38513;53.234;6.568;2024-02-28T16:38:20;42.17;;;30.63;;
52618;SDS011;38513;53.234;6.568;2024-02-28T16:40:48;40.40;;;30.48;;
52618;SDS011;38513;53.234;6.568;2024-02-28T16:43:17;40.47;;;30.60;;
52618;SDS011;38513;53.234;6.568;2024-02-28T16:45:46;38.45;;;29.98;;
52618;SDS011;38513;53.234;6.568;2024-02-28T16:48:25;39.92;;;30.40;;
52618;SDS011;38513;53.234;6.568;2024-02-28T16:50:57;42.87;;;30.87;;
52618;SDS011;38513;53.234;6.568;2024-02-28T16:53:36;40.80;;;31.03;;
52618;SDS011;38513;53.234;6.568;2024-02-28T16:56:17;39.30;;;31.13;;
52618;SDS011;38513;53.234;6.568;2024-02-28T16:58:46;39.88;;;30.08;;
52618;SDS011;38513;53.234;6.568;2024-02-28T17:01:18;40.25;;;30.23;;
52618;SDS011;38513;53.234;6.568;2024-02-28T17:10:21;42.88;;;32.15;;
52618;SDS011;38513;53.234;6.568;2024-02-28T17:12:50;44.70;;;31.85;;
52618;SDS011;38513;53.234;6.568;2024-02-28T17:18:25;42.28;;;31.58;;
52618;SDS011;38513;53.234;6.568;2024-02-28T17:21:16;42.85;;;32.40;;
52618;SDS011;38513;53.234;6.568;2024-02-28T17:23:47;42.73;;;31.93;;
52618;SDS011;38513;53.234;6.568;2024-02-28T17:26:25;42.65;;;31.90;;
52618;SDS011;38513;53.234;6.568;2024-02-28T17:29:05;43.90;;;31.53;;
52618;SDS011;38513;53.234;6.568;2024-02-28T17:31:35;43.78;;;32.03;;
52618;SDS011;38513;53.234;6.568;2024-02-28T17:34:04;46.65;;;32.78;;
52618;SDS011;38513;53.234;6.568;2024-02-28T17:36:31;42.97;;;32.22;;
52618;SDS011;38513;53.234;6.568;2024-02-28T17:39:03;45.55;;;34.03;;
52618;SDS011;38513;53.234;6.568;2024-02-28T17:41:40;45.43;;;33.47;;
52618;SDS011;38513;53.234;6.568;2024-02-28T17:44:07;45.08;;;33.33;;
52618;SDS011;38513;53.234;6.568;2024-02-28T17:46:50;45.63;;;33.17;;
52618;SDS011;38513;53.234;6.568;2024-02-28T17:55:26;48.08;;;34.40;;
52618;SDS011;38513;53.234;6.568;2024-02-28T17:57:56;48.22;;;35.08;;
52618;SDS011;38513;53.234;6.568;2024-02-28T18:00:48;48.95;;;35.22;;
52618;SDS011;38513;53.234;6.568;2024-02-28T18:03:44;48.90;;;35.73;;
52618;SDS011;38513;53.234;6.568;2024-02-28T18:06:11;49.40;;;37.45;;
52618;SDS011;38513;53.234;6.568;2024-02-28T18:09:04;50.40;;;36.63;;
52618;SDS011;38513;53.234;6.568;2024-02-28T18:11:35;52.15;;;36.47;;
52618;SDS011;38513;53.234;6.568;2024-02-28T18:14:12;54.78;;;39.00;;
52618;SDS011;38513;53.234;6.568;2024-02-28T18:16:45;53.83;;;40.80;;
52618;SDS011;38513;53.234;6.568;2024-02-28T18:19:22;56.53;;;41.40;;
52618;SDS011;38513;53.234;6.568;2024-02-28T18:22:12;55.65;;;40.08;;
52618;SDS011;38513;53.234;6.568;2024-02-28T18:24:42;56.72;;;40.88;;
52618;SDS011;38513;53.234;6.568;2024-02-28T18:27:21;59.20;;;40.85;;
52618;SDS011;38513;53.234;6.568;2024-02-28T18:29:53;61.08;;;43.25;;
52618;SDS011;38513;53.234;6.568;2024-02-28T18:32:19;63.28;;;43.10;;
52618;SDS011;38513;53.234;6.568;2024-02-28T18:34:48;60.95;;;43.10;;
52618;SDS011;38513;53.234;6.568;2024-02-28T18:37:44;65.00;;;44.58;;
52618;SDS011;38513;53.234;6.568;2024-02-28T18:40:47;71.17;;;45.07;;
52618;SDS011;38513;53.234;6.568;2024-02-28T18:46:09;67.65;;;44.47;;
52618;SDS011;38513;53.234;6.568;2024-02-28T18:51:48;67.68;;;45.85;;
52618;SDS011;38513;53.234;6.568;2024-02-28T19:05:54;72.05;;;47.72;;
52618;SDS011;38513;53.234;6.568;2024-02-28T19:08:33;74.97;;;47.25;;
52618;SDS011;38513;53.234;6.568;2024-02-28T19:14:44;72.53;;;47.13;;
52618;SDS011;38513;53.234;6.568;2024-02-28T19:17:11;74.10;;;45.60;;
52618;SDS011;38513;53.234;6.568;2024-02-28T19:19:37;70.32;;;46.65;;
52618;SDS011;38513;53.234;6.568;2024-02-28T19:22:05;71.90;;;46.22;;
52618;SDS011;38513;53.234;6.568;2024-02-28T19:24:34;70.75;;;46.97;;
52618;SDS011;38513;53.234;6.568;2024-02-28T19:27:01;69.90;;;45.88;;
52618;SDS011;38513;53.234;6.568;2024-02-28T19:29:32;73.82;;;45.78;;
52618;SDS011;38513;53.234;6.568;2024-02-28T19:32:16;68.53;;;44.80;;
52618;SDS011;38513;53.234;6.568;2024-02-28T19:34:43;67.43;;;44.47;;
52618;SDS011;38513;53.234;6.568;2024-02-28T19:37:15;73.18;;;46.10;;
52618;SDS011;38513;53.234;6.568;2024-02-28T19:39:45;70.63;;;44.10;;
52618;SDS011;38513;53.234;6.568;2024-02-28T19:42:31;68.03;;;43.05;;
52618;SDS011;38513;53.234;6.568;2024-02-28T19:48:25;65.70;;;43.38;;
52618;SDS011;38513;53.234;6.568;2024-02-28T19:54:29;68.78;;;43.70;;
52618;SDS011;38513;53.234;6.568;2024-02-28T19:57:19;71.72;;;42.35;;
52618;SDS011;38513;53.234;6.568;2024-02-28T19:59:47;67.43;;;42.53;;
52618;SDS011;38513;53.234;6.568;2024-02-28T20:02:21;67.22;;;43.20;;
52618;SDS011;38513;53.234;6.568;2024-02-28T20:04:50;70.30;;;43.25;;
52618;SDS011;38513;53.234;6.568;2024-02-28T20:07:40;69.05;;;43.25;;
52618;SDS011;38513;53.234;6.568;2024-02-28T20:10:21;68.30;;;42.78;;
52618;SDS011;38513;53.234;6.568;2024-02-28T20:12:57;68.38;;;43.35;;
52618;SDS011;38513;53.234;6.568;2024-02-28T20:25:08;68.05;;;40.30;;
52618;SDS011;38513;53.234;6.568;2024-02-28T20:27:39;67.50;;;41.20;;
52618;SDS011;38513;53.234;6.568;2024-02-28T20:30:18;65.78;;;41.70;;
52618;SDS011;38513;53.234;6.568;2024-02-28T20:32:52;65.53;;;40.67;;
52618;SDS011;38513;53.234;6.568;2024-02-28T20:35:21;63.13;;;39.75;;
52618;SDS011;38513;53.234;6.568;2024-02-28T20:38:08;62.60;;;38.50;;
52618;SDS011;38513;53.234;6.568;2024-02-28T20:48:04;61.05;;;38.55;;
52618;SDS011;38513;53.234;6.568;2024-02-28T20:51:16;57.63;;;37.05;;
52618;SDS011;38513;53.234;6.568;2024-02-28T20:53:50;58.03;;;37.42;;
52618;SDS011;38513;53.234;6.568;2024-02-28T20:59:20;58.55;;;35.75;;
52618;SDS011;38513;53.234;6.568;2024-02-28T21:01:49;55.70;;;36.53;;
52618;SDS011;38513;53.234;6.568;2024-02-28T21:04:23;55.28;;;35.42;;
52618;SDS011;38513;53.234;6.568;2024-02-28T21:06:52;58.63;;;35.90;;
52618;SDS011;38513;53.234;6.568;2024-02-28T21:12:54;55.42;;;34.08;;
52618;SDS011;38513;53.234;6.568;2024-02-28T21:25:38;45.72;;;30.20;;
52618;SDS011;38513;53.234;6.568;2024-02-28T21:35:32;41.67;;;27.80;;
52618;SDS011;38513;53.234;6.568;2024-02-28T21:38:03;43.10;;;28.75;;
52618;SDS011;38513;53.234;6.568;2024-02-28T21:41:14;40.30;;;26.30;;
52618;SDS011;38513;53.234;6.568;2024-02-28T21:50:39;40.17;;;26.27;;
52618;SDS011;38513;53.234;6.568;2024-02-28T21:56:34;40.50;;;26.15;;
52618;SDS011;38513;53.234;6.568;2024-02-28T21:59:08;39.80;;;25.50;;
52618;SDS011;38513;53.234;6.568;2024-02-28T22:08:27;38.07;;;25.27;;
52618;SDS011;38513;53.234;6.568;2024-02-28T22:11:01;36.35;;;24.17;;
52618;SDS011;38513;53.234;6.568;2024-02-28T22:13:30;36.78;;;24.73;;
52618;SDS011;38513;53.234;6.568;2024-02-28T22:16:00;36.30;;;24.17;;
52618;SDS011;38513;53.234;6.568;2024-02-28T22:18:34;38.55;;;25.13;;
52618;SDS011;38513;53.234;6.568;2024-02-28T22:21:04;37.42;;;24.40;;
52618;SDS011;38513;53.234;6.568;2024-02-28T22:23:43;37.20;;;25.63;;
52618;SDS011;38513;53.234;6.568;2024-02-28T22:29:23;38.63;;;24.80;;
52618;SDS011;38513;53.234;6.568;2024-02-28T22:32:08;37.40;;;24.90;;
52618;SDS011;38513;53.234;6.568;2024-02-28T22:34:40;34.90;;;24.30;;
52618;SDS011;38513;53.234;6.568;2024-02-28T22:37:16;36.83;;;24.38;;
52618;SDS011;38513;53.234;6.568;2024-02-28T22:39:58;36.22;;;25.00;;
52618;SDS011;38513;53.234;6.568;2024-02-28T22:42:39;39.90;;;25.00;;
52618;SDS011;38513;53.234;6.568;2024-02-28T22:45:37;36.17;;;25.52;;
52618;SDS011;38513;53.234;6.568;2024-02-28T22:48:17;37.75;;;24.40;;
52618;SDS011;38513;53.234;6.568;2024-02-28T22:50:47;35.58;;;25.13;;
52618;SDS011;38513;53.234;6.568;2024-02-28T22:53:22;35.53;;;24.67;;
52618;SDS011;38513;53.234;6.568;2024-02-28T22:55:55;35.17;;;24.38;;
52618;SDS011;38513;53.234;6.568;2024-02-28T23:02:00;35.72;;;23.65;;
52618;SDS011;38513;53.234;6.568;2024-02-28T23:04:38;37.42;;;25.23;;
52618;SDS011;38513;53.234;6.568;2024-02-28T23:07:12;36.97;;;25.00;;
52618;SDS011;38513;53.234;6.568;2024-02-28T23:13:53;37.85;;;25.75;;
52618;SDS011;38513;53.234;6.568;2024-02-28T23:16:50;37.05;;;25.48;;
52618;SDS011;38513;53.234;6.568;2024-02-28T23:19:21;36.78;;;25.73;;
52618;SDS011;38513;53.234;6.568;2024-02-28T23:22:12;38.78;;;25.75;;
52618;SDS011;38513;53.234;6.568;2024-02-28T23:24:54;38.70;;;26.20;;
52618;SDS011;38513;53.234;6.568;2024-02-28T23:27:35;35.50;;;25.00;;
52618;SDS011;38513;53.234;6.568;2024-02-28T23:33:15;35.63;;;25.83;;
52618;SDS011;38513;53.234;6.568;2024-02-28T23:35:58;37.97;;;26.48;;
52618;SDS011;38513;53.234;6.568;2024-02-28T23:38:37;37.03;;;27.10;;
52618;SDS011;38513;53.234;6.568;2024-02-28T23:41:06;37.20;;;26.48;;
